sensor_id;sensor_type;location;lat;lon;timestamp;temperature;humidity
62809;DHT22;48848;39.002;-94.584;2023-02-02T00:00:36;20.00;25.80
62809;DHT22;48848;39.002;-94.584;2023-02-02T00:03:02;20.20;25.40
62809;DHT22;48848;39.002;-94.584;2023-02-02T00:05:27;20.70;25.30
62809;DHT22;48848;39.002;-94.584;2023-02-02T00:07:53;20.90;25.00
62809;DHT22;48848;39.002;-94.584;2023-02-02T00:10:19;21.00;24.80
62809;DHT22;48848;39.002;-94.584;2023-02-02T00:12:45;21.30;24.70
62809;DHT22;48848;39.002;-94.584;2023-02-02T00:15:11;20.60;24.10
62809;DHT22;48848;39.002;-94.584;2023-02-02T00:17:37;19.40;24.80
62809;DHT22;48848;39.002;-94.584;2023-02-02T00:20:03;18.60;25.80
62809;DHT22;48848;39.002;-94.584;2023-02-02T00:22:28;18.10;26.20
62809;DHT22;48848;39.002;-94.584;2023-02-02T00:24:54;17.90;26.80
62809;DHT22;48848;39.002;-94.584;2023-02-02T00:27:20;17.90;27.40
62809;DHT22;48848;39.002;-94.584;2023-02-02T00:29:46;18.60;27.40
62809;DHT22;48848;39.002;-94.584;2023-02-02T00:32:12;19.80;26.50
62809;DHT22;48848;39.002;-94.584;2023-02-02T00:34:38;20.30;26.00
62809;DHT22;48848;39.002;-94.584;2023-02-02T00:37:04;20.90;25.30
62809;DHT22;48848;39.002;-94.584;2023-02-02T00:39:29;20.70;24.60
62809;DHT22;48848;39.002;-94.584;2023-02-02T00:41:55;19.60;24.90
62809;DHT22;48848;39.002;-94.584;2023-02-02T00:44:21;18.90;25.60
62809;DHT22;48848;39.002;-94.584;2023-02-02T00:47:06;18.50;26.20
62809;DHT22;48848;39.002;-94.584;2023-02-02T00:49:32;17.90;26.80
62809;DHT22;48848;39.002;-94.584;2023-02-02T00:51:58;17.50;27.40
62809;DHT22;48848;39.002;-94.584;2023-02-02T00:54:25;17.50;27.80
62809;DHT22;48848;39.002;-94.584;2023-02-02T00:56:50;18.40;27.90
62809;DHT22;48848;39.002;-94.584;2023-02-02T00:59:16;19.30;26.80
62809;DHT22;48848;39.002;-94.584;2023-02-02T01:01:42;20.20;26.10
62809;DHT22;48848;39.002;-94.584;2023-02-02T01:04:08;20.80;25.60
62809;DHT22;48848;39.002;-94.584;2023-02-02T01:06:34;20.30;24.70
62809;DHT22;48848;39.002;-94.584;2023-02-02T01:09:00;19.20;25.60
62809;DHT22;48848;39.002;-94.584;2023-02-02T01:11:26;18.30;26.30
62809;DHT22;48848;39.002;-94.584;2023-02-02T01:13:52;17.90;26.80
62809;DHT22;48848;39.002;-94.584;2023-02-02T01:16:18;17.70;27.20
62809;DHT22;48848;39.002;-94.584;2023-02-02T01:18:47;17.50;27.60
62809;DHT22;48848;39.002;-94.584;2023-02-02T01:21:13;17.30;27.80
62809;DHT22;48848;39.002;-94.584;2023-02-02T01:23:39;17.00;27.90
62809;DHT22;48848;39.002;-94.584;2023-02-02T01:26:06;17.40;28.40
62809;DHT22;48848;39.002;-94.584;2023-02-02T01:28:32;18.70;27.80
62809;DHT22;48848;39.002;-94.584;2023-02-02T01:31:03;19.70;26.70
62809;DHT22;48848;39.002;-94.584;2023-02-02T01:33:29;20.40;25.90
62809;DHT22;48848;39.002;-94.584;2023-02-02T01:35:55;20.20;24.90
62809;DHT22;48848;39.002;-94.584;2023-02-02T01:38:21;19.30;25.20
62809;DHT22;48848;39.002;-94.584;2023-02-02T01:40:51;18.70;25.90
62809;DHT22;48848;39.002;-94.584;2023-02-02T01:43:24;18.10;26.60
62809;DHT22;48848;39.002;-94.584;2023-02-02T01:45:51;17.50;27.60
62809;DHT22;48848;39.002;-94.584;2023-02-02T01:48:18;17.20;28.00
62809;DHT22;48848;39.002;-94.584;2023-02-02T01:50:44;16.90;28.10
62809;DHT22;48848;39.002;-94.584;2023-02-02T01:53:11;16.70;28.20
62809;DHT22;48848;39.002;-94.584;2023-02-02T01:55:37;16.90;28.70
62809;DHT22;48848;39.002;-94.584;2023-02-02T01:58:09;18.30;28.30
62809;DHT22;48848;39.002;-94.584;2023-02-02T02:00:36;19.30;27.20
62809;DHT22;48848;39.002;-94.584;2023-02-02T02:03:04;20.10;26.20
62809;DHT22;48848;39.002;-94.584;2023-02-02T02:05:33;19.90;25.10
62809;DHT22;48848;39.002;-94.584;2023-02-02T02:08:02;19.00;25.70
62809;DHT22;48848;39.002;-94.584;2023-02-02T02:10:28;18.50;26.30
62809;DHT22;48848;39.002;-94.584;2023-02-02T02:12:54;17.90;27.10
62809;DHT22;48848;39.002;-94.584;2023-02-02T02:15:20;17.30;27.60
62809;DHT22;48848;39.002;-94.584;2023-02-02T02:18:17;16.90;28.00
62809;DHT22;48848;39.002;-94.584;2023-02-02T02:32:04;18.60;27.80
62809;DHT22;48848;39.002;-94.584;2023-02-02T02:37:17;18.30;26.20
62809;DHT22;48848;39.002;-94.584;2023-02-02T02:40:46;17.90;27.00
62809;DHT22;48848;39.002;-94.584;2023-02-02T02:42:51;17.30;27.70
62809;DHT22;48848;39.002;-94.584;2023-02-02T02:45:19;16.80;28.30
62809;DHT22;48848;39.002;-94.584;2023-02-02T02:47:46;16.40;28.70
62809;DHT22;48848;39.002;-94.584;2023-02-02T02:50:13;16.20;29.10
62809;DHT22;48848;39.002;-94.584;2023-02-02T02:52:38;16.00;29.20
62809;DHT22;48848;39.002;-94.584;2023-02-02T02:55:05;16.20;29.10
62809;DHT22;48848;39.002;-94.584;2023-02-02T03:00:08;18.10;28.10
62809;DHT22;48848;39.002;-94.584;2023-02-02T03:02:56;19.30;27.00
62809;DHT22;48848;39.002;-94.584;2023-02-02T03:05:30;18.60;26.20
62809;DHT22;48848;39.002;-94.584;2023-02-02T03:10:29;17.30;27.70
62809;DHT22;48848;39.002;-94.584;2023-02-02T03:12:55;16.80;29.00
62809;DHT22;48848;39.002;-94.584;2023-02-02T03:15:22;16.40;28.80
62809;DHT22;48848;39.002;-94.584;2023-02-02T03:17:48;16.10;28.90
62809;DHT22;48848;39.002;-94.584;2023-02-02T03:20:15;15.90;29.20
62809;DHT22;48848;39.002;-94.584;2023-02-02T03:22:41;15.80;29.50
62809;DHT22;48848;39.002;-94.584;2023-02-02T03:25:07;15.90;29.30
62809;DHT22;48848;39.002;-94.584;2023-02-02T03:27:38;16.40;29.10
62809;DHT22;48848;39.002;-94.584;2023-02-02T03:30:05;17.00;28.20
62809;DHT22;48848;39.002;-94.584;2023-02-02T03:32:32;17.50;27.80
62809;DHT22;48848;39.002;-94.584;2023-02-02T03:34:58;17.40;27.40
62809;DHT22;48848;39.002;-94.584;2023-02-02T03:37:24;17.10;28.00
62809;DHT22;48848;39.002;-94.584;2023-02-02T03:39:50;16.60;28.60
62809;DHT22;48848;39.002;-94.584;2023-02-02T03:42:16;16.20;28.80
62809;DHT22;48848;39.002;-94.584;2023-02-02T03:44:42;16.00;29.30
62809;DHT22;48848;39.002;-94.584;2023-02-02T03:47:08;15.80;29.30
62809;DHT22;48848;39.002;-94.584;2023-02-02T03:49:34;15.60;29.60
62809;DHT22;48848;39.002;-94.584;2023-02-02T03:51:59;15.50;29.60
62809;DHT22;48848;39.002;-94.584;2023-02-02T03:54:27;15.40;29.80
62809;DHT22;48848;39.002;-94.584;2023-02-02T03:56:53;15.20;29.80
62809;DHT22;48848;39.002;-94.584;2023-02-02T03:59:19;15.10;29.90
62809;DHT22;48848;39.002;-94.584;2023-02-02T04:01:44;15.00;29.90
62809;DHT22;48848;39.002;-94.584;2023-02-02T04:04:10;14.90;29.90
62809;DHT22;48848;39.002;-94.584;2023-02-02T04:06:36;14.90;30.00
62809;DHT22;48848;39.002;-94.584;2023-02-02T04:09:02;14.80;30.00
62809;DHT22;48848;39.002;-94.584;2023-02-02T04:11:28;14.70;30.00
62809;DHT22;48848;39.002;-94.584;2023-02-02T04:13:54;14.60;30.10
62809;DHT22;48848;39.002;-94.584;2023-02-02T04:16:20;14.50;30.00
62809;DHT22;48848;39.002;-94.584;2023-02-02T04:18:46;14.50;30.20
62809;DHT22;48848;39.002;-94.584;2023-02-02T04:21:12;14.50;30.20
62809;DHT22;48848;39.002;-94.584;2023-02-02T04:23:38;14.40;30.10
62809;DHT22;48848;39.002;-94.584;2023-02-02T04:26:04;14.40;30.10
62809;DHT22;48848;39.002;-94.584;2023-02-02T04:28:30;14.30;30.20
62809;DHT22;48848;39.002;-94.584;2023-02-02T04:30:56;14.20;30.10
62809;DHT22;48848;39.002;-94.584;2023-02-02T04:33:22;14.20;30.20
62809;DHT22;48848;39.002;-94.584;2023-02-02T04:35:49;14.10;30.00
62809;DHT22;48848;39.002;-94.584;2023-02-02T04:38:15;14.10;30.40
62809;DHT22;48848;39.002;-94.584;2023-02-02T04:40:42;14.00;30.20
62809;DHT22;48848;39.002;-94.584;2023-02-02T04:43:08;13.90;30.20
62809;DHT22;48848;39.002;-94.584;2023-02-02T04:45:34;13.90;30.40
62809;DHT22;48848;39.002;-94.584;2023-02-02T04:48:00;13.90;30.50
62809;DHT22;48848;39.002;-94.584;2023-02-02T04:50:26;13.80;30.40
62809;DHT22;48848;39.002;-94.584;2023-02-02T04:52:52;13.80;30.50
62809;DHT22;48848;39.002;-94.584;2023-02-02T04:55:18;13.70;30.40
62809;DHT22;48848;39.002;-94.584;2023-02-02T04:57:44;13.70;30.40
62809;DHT22;48848;39.002;-94.584;2023-02-02T05:00:10;13.70;30.30
62809;DHT22;48848;39.002;-94.584;2023-02-02T05:02:37;13.60;30.40
62809;DHT22;48848;39.002;-94.584;2023-02-02T05:05:03;13.50;30.50
62809;DHT22;48848;39.002;-94.584;2023-02-02T05:07:30;13.50;30.40
62809;DHT22;48848;39.002;-94.584;2023-02-02T05:09:56;13.50;30.40
62809;DHT22;48848;39.002;-94.584;2023-02-02T05:12:22;13.40;30.30
62809;DHT22;48848;39.002;-94.584;2023-02-02T05:14:48;13.40;30.40
62809;DHT22;48848;39.002;-94.584;2023-02-02T05:17:14;13.30;30.40
62809;DHT22;48848;39.002;-94.584;2023-02-02T05:19:40;13.30;30.50
62809;DHT22;48848;39.002;-94.584;2023-02-02T05:22:06;13.30;30.60
62809;DHT22;48848;39.002;-94.584;2023-02-02T05:24:32;13.20;30.50
62809;DHT22;48848;39.002;-94.584;2023-02-02T05:26:58;13.20;30.60
62809;DHT22;48848;39.002;-94.584;2023-02-02T05:29:28;13.20;30.50
62809;DHT22;48848;39.002;-94.584;2023-02-02T05:31:55;13.10;30.50
62809;DHT22;48848;39.002;-94.584;2023-02-02T05:34:21;13.10;30.50
62809;DHT22;48848;39.002;-94.584;2023-02-02T05:36:47;13.00;30.40
62809;DHT22;48848;39.002;-94.584;2023-02-02T05:39:13;13.00;30.50
62809;DHT22;48848;39.002;-94.584;2023-02-02T05:41:39;12.90;30.60
62809;DHT22;48848;39.002;-94.584;2023-02-02T05:44:05;12.90;30.60
62809;DHT22;48848;39.002;-94.584;2023-02-02T05:46:31;12.80;30.50
62809;DHT22;48848;39.002;-94.584;2023-02-02T05:48:57;12.80;30.70
62809;DHT22;48848;39.002;-94.584;2023-02-02T05:51:27;12.80;30.70
62809;DHT22;48848;39.002;-94.584;2023-02-02T05:53:54;12.70;30.60
62809;DHT22;48848;39.002;-94.584;2023-02-02T05:56:20;12.70;30.70
62809;DHT22;48848;39.002;-94.584;2023-02-02T05:58:45;12.60;30.70
62809;DHT22;48848;39.002;-94.584;2023-02-02T06:01:14;12.60;30.70
62809;DHT22;48848;39.002;-94.584;2023-02-02T06:03:40;12.70;30.70
62809;DHT22;48848;39.002;-94.584;2023-02-02T06:06:06;13.20;30.00
62809;DHT22;48848;39.002;-94.584;2023-02-02T06:08:32;13.80;29.50
62809;DHT22;48848;39.002;-94.584;2023-02-02T06:10:58;14.30;28.90
62809;DHT22;48848;39.002;-94.584;2023-02-02T06:13:24;14.20;28.90
62809;DHT22;48848;39.002;-94.584;2023-02-02T06:15:50;14.00;29.40
62809;DHT22;48848;39.002;-94.584;2023-02-02T06:18:15;13.60;29.70
62809;DHT22;48848;39.002;-94.584;2023-02-02T06:20:41;13.30;30.00
62809;DHT22;48848;39.002;-94.584;2023-02-02T06:23:07;13.10;30.20
62809;DHT22;48848;39.002;-94.584;2023-02-02T06:25:33;13.00;30.50
62809;DHT22;48848;39.002;-94.584;2023-02-02T06:27:59;12.90;30.40
62809;DHT22;48848;39.002;-94.584;2023-02-02T06:30:25;12.80;30.80
62809;DHT22;48848;39.002;-94.584;2023-02-02T06:32:51;12.70;30.80
62809;DHT22;48848;39.002;-94.584;2023-02-02T06:35:18;12.70;30.80
62809;DHT22;48848;39.002;-94.584;2023-02-02T06:37:44;12.60;30.90
62809;DHT22;48848;39.002;-94.584;2023-02-02T06:40:10;12.60;31.10
62809;DHT22;48848;39.002;-94.584;2023-02-02T06:42:36;12.80;30.70
62809;DHT22;48848;39.002;-94.584;2023-02-02T06:45:02;13.50;30.00
62809;DHT22;48848;39.002;-94.584;2023-02-02T06:47:30;14.00;29.50
62809;DHT22;48848;39.002;-94.584;2023-02-02T06:49:56;14.40;29.00
62809;DHT22;48848;39.002;-94.584;2023-02-02T06:52:22;14.20;29.10
62809;DHT22;48848;39.002;-94.584;2023-02-02T06:54:48;13.80;29.50
62809;DHT22;48848;39.002;-94.584;2023-02-02T06:57:14;13.50;29.90
62809;DHT22;48848;39.002;-94.584;2023-02-02T06:59:40;13.30;30.40
62809;DHT22;48848;39.002;-94.584;2023-02-02T07:02:10;13.00;30.40
62809;DHT22;48848;39.002;-94.584;2023-02-02T07:04:36;12.90;30.80
62809;DHT22;48848;39.002;-94.584;2023-02-02T07:07:02;12.80;30.80
62809;DHT22;48848;39.002;-94.584;2023-02-02T07:09:30;12.70;30.80
62809;DHT22;48848;39.002;-94.584;2023-02-02T07:11:56;12.60;30.90
62809;DHT22;48848;39.002;-94.584;2023-02-02T07:14:22;12.70;31.20
62809;DHT22;48848;39.002;-94.584;2023-02-02T07:16:48;13.20;30.50
62809;DHT22;48848;39.002;-94.584;2023-02-02T07:19:14;13.80;30.70
62809;DHT22;48848;39.002;-94.584;2023-02-02T07:21:39;14.40;29.20
62809;DHT22;48848;39.002;-94.584;2023-02-02T07:24:05;14.40;28.90
62809;DHT22;48848;39.002;-94.584;2023-02-02T07:26:32;14.10;29.40
62809;DHT22;48848;39.002;-94.584;2023-02-02T07:28:58;13.70;29.90
62809;DHT22;48848;39.002;-94.584;2023-02-02T07:31:25;13.40;30.00
62809;DHT22;48848;39.002;-94.584;2023-02-02T07:33:51;13.10;30.10
62809;DHT22;48848;39.002;-94.584;2023-02-02T07:36:18;13.00;30.80
62809;DHT22;48848;39.002;-94.584;2023-02-02T07:38:45;12.80;30.90
62809;DHT22;48848;39.002;-94.584;2023-02-02T07:41:12;12.70;30.90
62809;DHT22;48848;39.002;-94.584;2023-02-02T07:43:38;12.60;31.00
62809;DHT22;48848;39.002;-94.584;2023-02-02T07:46:04;12.70;31.10
62809;DHT22;48848;39.002;-94.584;2023-02-02T07:48:33;13.20;30.60
62809;DHT22;48848;39.002;-94.584;2023-02-02T07:50:59;13.80;29.50
62809;DHT22;48848;39.002;-94.584;2023-02-02T07:53:26;14.20;29.20
62809;DHT22;48848;39.002;-94.584;2023-02-02T07:55:51;14.20;28.90
62809;DHT22;48848;39.002;-94.584;2023-02-02T07:58:17;13.80;29.50
62809;DHT22;48848;39.002;-94.584;2023-02-02T08:00:43;13.50;30.00
62809;DHT22;48848;39.002;-94.584;2023-02-02T08:03:12;13.20;30.20
62809;DHT22;48848;39.002;-94.584;2023-02-02T08:05:38;13.00;30.50
62809;DHT22;48848;39.002;-94.584;2023-02-02T08:08:04;12.90;30.90
62809;DHT22;48848;39.002;-94.584;2023-02-02T08:10:30;12.70;31.00
62809;DHT22;48848;39.002;-94.584;2023-02-02T08:12:55;12.60;31.10
62809;DHT22;48848;39.002;-94.584;2023-02-02T08:15:21;12.50;31.10
62809;DHT22;48848;39.002;-94.584;2023-02-02T08:17:47;12.80;31.00
62809;DHT22;48848;39.002;-94.584;2023-02-02T08:20:14;13.40;30.20
62809;DHT22;48848;39.002;-94.584;2023-02-02T08:22:40;13.90;29.70
62809;DHT22;48848;39.002;-94.584;2023-02-02T08:25:06;14.30;28.80
62809;DHT22;48848;39.002;-94.584;2023-02-02T08:27:32;14.00;29.10
62809;DHT22;48848;39.002;-94.584;2023-02-02T08:29:58;13.70;30.00
62809;DHT22;48848;39.002;-94.584;2023-02-02T08:32:24;13.40;30.20
62809;DHT22;48848;39.002;-94.584;2023-02-02T08:34:50;13.20;30.50
62809;DHT22;48848;39.002;-94.584;2023-02-02T08:37:19;13.00;30.80
62809;DHT22;48848;39.002;-94.584;2023-02-02T08:39:44;12.80;31.10
62809;DHT22;48848;39.002;-94.584;2023-02-02T08:42:10;12.70;31.10
62809;DHT22;48848;39.002;-94.584;2023-02-02T08:44:36;12.60;31.20
62809;DHT22;48848;39.002;-94.584;2023-02-02T08:47:02;12.70;31.20
62809;DHT22;48848;39.002;-94.584;2023-02-02T08:49:28;13.20;30.50
62809;DHT22;48848;39.002;-94.584;2023-02-02T08:51:54;13.90;29.90
62809;DHT22;48848;39.002;-94.584;2023-02-02T08:54:20;14.40;29.20
62809;DHT22;48848;39.002;-94.584;2023-02-02T08:56:45;14.30;29.30
62809;DHT22;48848;39.002;-94.584;2023-02-02T08:59:11;13.90;29.70
62809;DHT22;48848;39.002;-94.584;2023-02-02T09:01:37;13.60;30.00
62809;DHT22;48848;39.002;-94.584;2023-02-02T09:04:06;13.30;30.50
62809;DHT22;48848;39.002;-94.584;2023-02-02T09:06:34;13.00;30.80
62809;DHT22;48848;39.002;-94.584;2023-02-02T09:09:00;12.90;31.00
62809;DHT22;48848;39.002;-94.584;2023-02-02T09:11:26;12.70;31.20
62809;DHT22;48848;39.002;-94.584;2023-02-02T09:13:53;12.70;31.30
62809;DHT22;48848;39.002;-94.584;2023-02-02T09:16:20;12.70;31.20
62809;DHT22;48848;39.002;-94.584;2023-02-02T09:18:46;13.30;30.60
62809;DHT22;48848;39.002;-94.584;2023-02-02T09:21:13;14.00;29.90
62809;DHT22;48848;39.002;-94.584;2023-02-02T09:23:39;14.40;29.20
62809;DHT22;48848;39.002;-94.584;2023-02-02T09:26:16;14.20;29.30
62809;DHT22;48848;39.002;-94.584;2023-02-02T09:28:44;13.90;29.80
62809;DHT22;48848;39.002;-94.584;2023-02-02T09:31:10;13.50;30.20
62809;DHT22;48848;39.002;-94.584;2023-02-02T09:33:36;13.20;30.60
62809;DHT22;48848;39.002;-94.584;2023-02-02T09:36:03;13.00;30.90
62809;DHT22;48848;39.002;-94.584;2023-02-02T09:38:29;12.80;31.00
62809;DHT22;48848;39.002;-94.584;2023-02-02T09:40:55;12.70;31.10
62809;DHT22;48848;39.002;-94.584;2023-02-02T09:48:44;13.60;30.10
62809;DHT22;48848;39.002;-94.584;2023-02-02T09:51:18;14.20;29.60
62809;DHT22;48848;39.002;-94.584;2023-02-02T09:53:46;14.20;29.40
62809;DHT22;48848;39.002;-94.584;2023-02-02T09:56:32;13.80;29.90
62809;DHT22;48848;39.002;-94.584;2023-02-02T09:58:59;13.50;30.30
62809;DHT22;48848;39.002;-94.584;2023-02-02T10:01:28;13.20;30.70
62809;DHT22;48848;39.002;-94.584;2023-02-02T10:08:54;12.70;31.20
62809;DHT22;48848;39.002;-94.584;2023-02-02T10:11:26;12.60;31.40
62809;DHT22;48848;39.002;-94.584;2023-02-02T10:13:55;13.00;32.00
62809;DHT22;48848;39.002;-94.584;2023-02-02T10:16:24;13.60;30.30
62809;DHT22;48848;39.002;-94.584;2023-02-02T10:18:53;14.20;29.50
62809;DHT22;48848;39.002;-94.584;2023-02-02T10:23:46;14.00;29.70
62809;DHT22;48848;39.002;-94.584;2023-02-02T10:33:57;12.90;31.00
62809;DHT22;48848;39.002;-94.584;2023-02-02T10:39:15;12.60;31.30
62809;DHT22;48848;39.002;-94.584;2023-02-02T10:41:48;12.70;31.30
62809;DHT22;48848;39.002;-94.584;2023-02-02T10:46:47;13.80;29.90
62809;DHT22;48848;39.002;-94.584;2023-02-02T10:57:10;13.30;30.30
62809;DHT22;48848;39.002;-94.584;2023-02-02T10:59:47;13.00;30.90
62809;DHT22;48848;39.002;-94.584;2023-02-02T11:02:15;12.80;31.10
62809;DHT22;48848;39.002;-94.584;2023-02-02T11:04:44;12.70;31.20
62809;DHT22;48848;39.002;-94.584;2023-02-02T11:07:29;12.60;31.40
62809;DHT22;48848;39.002;-94.584;2023-02-02T11:09:55;12.50;31.30
62809;DHT22;48848;39.002;-94.584;2023-02-02T11:12:31;12.90;31.00
62809;DHT22;48848;39.002;-94.584;2023-02-02T11:14:59;13.60;30.40
62809;DHT22;48848;39.002;-94.584;2023-02-02T11:17:29;14.10;29.50
62809;DHT22;48848;39.002;-94.584;2023-02-02T11:19:56;14.20;29.30
62809;DHT22;48848;39.002;-94.584;2023-02-02T11:22:23;13.80;29.70
62809;DHT22;48848;39.002;-94.584;2023-02-02T11:24:50;13.50;30.10
62809;DHT22;48848;39.002;-94.584;2023-02-02T11:37:32;12.50;31.40
62809;DHT22;48848;39.002;-94.584;2023-02-02T11:43:00;13.40;30.40
62809;DHT22;48848;39.002;-94.584;2023-02-02T11:48:03;14.80;29.20
62809;DHT22;48848;39.002;-94.584;2023-02-02T11:50:30;15.30;28.90
62809;DHT22;48848;39.002;-94.584;2023-02-02T11:52:56;15.70;28.40
62809;DHT22;48848;39.002;-94.584;2023-02-02T11:55:24;16.00;28.10
62809;DHT22;48848;39.002;-94.584;2023-02-02T12:00:46;16.50;27.80
62809;DHT22;48848;39.002;-94.584;2023-02-02T12:05:57;16.90;27.40
62809;DHT22;48848;39.002;-94.584;2023-02-02T12:08:23;17.00;27.40
62809;DHT22;48848;39.002;-94.584;2023-02-02T12:10:52;17.20;27.10
62809;DHT22;48848;39.002;-94.584;2023-02-02T12:14:20;16.60;26.90
62809;DHT22;48848;39.002;-94.584;2023-02-02T12:16:30;15.90;27.70
62809;DHT22;48848;39.002;-94.584;2023-02-02T12:26:48;15.50;29.00
62809;DHT22;48848;39.002;-94.584;2023-02-02T12:29:33;16.00;28.60
62809;DHT22;48848;39.002;-94.584;2023-02-02T12:32:19;16.60;27.90
62809;DHT22;48848;39.002;-94.584;2023-02-02T12:45:26;14.60;29.20
62809;DHT22;48848;39.002;-94.584;2023-02-02T12:53:30;15.60;28.80
62809;DHT22;48848;39.002;-94.584;2023-02-02T12:58:37;16.00;27.70
62809;DHT22;48848;39.002;-94.584;2023-02-02T13:11:10;14.50;29.70
62809;DHT22;48848;39.002;-94.584;2023-02-02T13:14:27;14.80;29.30
62809;DHT22;48848;39.002;-94.584;2023-02-02T13:16:46;15.40;28.90
62809;DHT22;48848;39.002;-94.584;2023-02-02T13:19:19;15.90;28.30
62809;DHT22;48848;39.002;-94.584;2023-02-02T13:21:48;16.10;27.90
62809;DHT22;48848;39.002;-94.584;2023-02-02T13:24:17;15.60;27.90
62809;DHT22;48848;39.002;-94.584;2023-02-02T13:26:46;15.10;28.40
62809;DHT22;48848;39.002;-94.584;2023-02-02T13:29:23;14.80;28.90
62809;DHT22;48848;39.002;-94.584;2023-02-02T13:32:37;14.40;29.40
62809;DHT22;48848;39.002;-94.584;2023-02-02T13:39:41;15.10;29.20
62809;DHT22;48848;39.002;-94.584;2023-02-02T13:42:13;15.70;28.70
62809;DHT22;48848;39.002;-94.584;2023-02-02T13:44:46;15.90;28.10
62809;DHT22;48848;39.002;-94.584;2023-02-02T13:47:19;15.60;28.20
62809;DHT22;48848;39.002;-94.584;2023-02-02T13:49:52;15.10;28.60
62809;DHT22;48848;39.002;-94.584;2023-02-02T14:02:47;15.00;29.10
62809;DHT22;48848;39.002;-94.584;2023-02-02T14:07:56;15.90;28.00
62809;DHT22;48848;39.002;-94.584;2023-02-02T14:10:29;15.60;28.30
62809;DHT22;48848;39.002;-94.584;2023-02-02T14:12:59;15.10;28.80
62809;DHT22;48848;39.002;-94.584;2023-02-02T14:15:38;14.70;29.10
62809;DHT22;48848;39.002;-94.584;2023-02-02T14:18:05;14.40;29.60
62809;DHT22;48848;39.002;-94.584;2023-02-02T14:20:39;14.20;29.90
62809;DHT22;48848;39.002;-94.584;2023-02-02T14:25:59;14.90;29.40
62809;DHT22;48848;39.002;-94.584;2023-02-02T14:28:39;15.40;28.70
62809;DHT22;48848;39.002;-94.584;2023-02-02T14:31:16;15.70;27.90
62809;DHT22;48848;39.002;-94.584;2023-02-02T14:33:42;15.40;28.20
62809;DHT22;48848;39.002;-94.584;2023-02-02T14:36:12;15.00;29.00
62809;DHT22;48848;39.002;-94.584;2023-02-02T14:41:53;14.40;29.50
62809;DHT22;48848;39.002;-94.584;2023-02-02T14:45:03;14.10;30.00
62809;DHT22;48848;39.002;-94.584;2023-02-02T14:47:41;14.10;30.00
62809;DHT22;48848;39.002;-94.584;2023-02-02T14:50:17;14.70;29.50
62809;DHT22;48848;39.002;-94.584;2023-02-02T14:52:54;15.40;29.30
62809;DHT22;48848;39.002;-94.584;2023-02-02T14:55:20;15.80;28.40
62809;DHT22;48848;39.002;-94.584;2023-02-02T14:57:57;15.70;28.00
62809;DHT22;48848;39.002;-94.584;2023-02-02T15:00:24;15.20;28.60
62809;DHT22;48848;39.002;-94.584;2023-02-02T15:02:50;14.80;29.10
62809;DHT22;48848;39.002;-94.584;2023-02-02T15:08:38;14.30;30.00
62809;DHT22;48848;39.002;-94.584;2023-02-02T15:13:12;14.00;30.10
62809;DHT22;48848;39.002;-94.584;2023-02-02T15:15:40;13.90;30.40
62809;DHT22;48848;39.002;-94.584;2023-02-02T15:18:20;13.80;30.60
62809;DHT22;48848;39.002;-94.584;2023-02-02T15:20:51;13.70;30.40
62809;DHT22;48848;39.002;-94.584;2023-02-02T15:23:31;13.70;30.70
62809;DHT22;48848;39.002;-94.584;2023-02-02T15:31:27;13.50;30.70
62809;DHT22;48848;39.002;-94.584;2023-02-02T15:33:52;13.50;30.50
62809;DHT22;48848;39.002;-94.584;2023-02-02T15:36:26;13.50;30.90
62809;DHT22;48848;39.002;-94.584;2023-02-02T15:38:54;13.50;30.80
62809;DHT22;48848;39.002;-94.584;2023-02-02T15:41:41;13.50;30.30
62809;DHT22;48848;39.002;-94.584;2023-02-02T15:44:17;13.30;30.50
62809;DHT22;48848;39.002;-94.584;2023-02-02T15:46:44;13.30;30.70
62809;DHT22;48848;39.002;-94.584;2023-02-02T15:51:42;13.30;30.60
62809;DHT22;48848;39.002;-94.584;2023-02-02T15:56:47;13.30;30.80
62809;DHT22;48848;39.002;-94.584;2023-02-02T15:59:16;13.30;30.70
62809;DHT22;48848;39.002;-94.584;2023-02-02T16:01:46;13.30;30.60
62809;DHT22;48848;39.002;-94.584;2023-02-02T16:04:17;13.30;30.50
62809;DHT22;48848;39.002;-94.584;2023-02-02T16:06:44;13.20;30.60
62809;DHT22;48848;39.002;-94.584;2023-02-02T16:09:15;13.20;30.80
62809;DHT22;48848;39.002;-94.584;2023-02-02T16:11:43;13.20;30.70
62809;DHT22;48848;39.002;-94.584;2023-02-02T16:14:13;13.20;30.90
62809;DHT22;48848;39.002;-94.584;2023-02-02T16:16:42;13.20;30.90
62809;DHT22;48848;39.002;-94.584;2023-02-02T16:21:35;14.20;29.90
62809;DHT22;48848;39.002;-94.584;2023-02-02T16:24:06;14.80;29.50
62809;DHT22;48848;39.002;-94.584;2023-02-02T16:26:34;15.00;29.10
62809;DHT22;48848;39.002;-94.584;2023-02-02T16:29:00;14.80;29.30
62809;DHT22;48848;39.002;-94.584;2023-02-02T16:31:26;14.50;29.40
62809;DHT22;48848;39.002;-94.584;2023-02-02T16:33:55;14.30;29.90
62809;DHT22;48848;39.002;-94.584;2023-02-02T16:38:47;13.90;30.00
62809;DHT22;48848;39.002;-94.584;2023-02-02T16:41:23;13.80;30.10
62809;DHT22;48848;39.002;-94.584;2023-02-02T16:43:50;13.80;30.30
62809;DHT22;48848;39.002;-94.584;2023-02-02T16:46:16;13.80;30.10
62809;DHT22;48848;39.002;-94.584;2023-02-02T16:49:01;13.70;30.30
62809;DHT22;48848;39.002;-94.584;2023-02-02T16:51:30;13.70;30.70
62809;DHT22;48848;39.002;-94.584;2023-02-02T16:54:00;13.70;30.70
62809;DHT22;48848;39.002;-94.584;2023-02-02T16:56:31;13.70;30.60
62809;DHT22;48848;39.002;-94.584;2023-02-02T16:58:59;14.10;30.40
62809;DHT22;48848;39.002;-94.584;2023-02-02T17:01:37;14.60;30.10
62809;DHT22;48848;39.002;-94.584;2023-02-02T17:04:03;15.20;29.50
62809;DHT22;48848;39.002;-94.584;2023-02-02T17:06:30;15.50;28.90
62809;DHT22;48848;39.002;-94.584;2023-02-02T17:09:12;15.30;29.10
62809;DHT22;48848;39.002;-94.584;2023-02-02T17:11:38;15.10;29.10
62809;DHT22;48848;39.002;-94.584;2023-02-02T17:14:17;14.80;29.60
62809;DHT22;48848;39.002;-94.584;2023-02-02T17:16:43;14.70;30.00
62809;DHT22;48848;39.002;-94.584;2023-02-02T17:19:09;14.60;29.90
62809;DHT22;48848;39.002;-94.584;2023-02-02T17:21:35;14.40;30.00
62809;DHT22;48848;39.002;-94.584;2023-02-02T17:24:01;14.30;30.40
62809;DHT22;48848;39.002;-94.584;2023-02-02T17:26:27;14.30;30.40
62809;DHT22;48848;39.002;-94.584;2023-02-02T17:28:57;14.30;30.50
62809;DHT22;48848;39.002;-94.584;2023-02-02T17:31:24;14.30;30.60
62809;DHT22;48848;39.002;-94.584;2023-02-02T17:33:50;14.30;30.60
62809;DHT22;48848;39.002;-94.584;2023-02-02T17:36:16;14.30;30.00
62809;DHT22;48848;39.002;-94.584;2023-02-02T17:38:42;14.20;30.50
62809;DHT22;48848;39.002;-94.584;2023-02-02T17:41:08;14.20;30.50
62809;DHT22;48848;39.002;-94.584;2023-02-02T17:43:36;14.20;30.40
62809;DHT22;48848;39.002;-94.584;2023-02-02T17:46:02;14.20;30.50